Time;durP1;ratioP1;P1;durP2;ratioP2;P2;SDS_P1;SDS_P2;PMS_P1;PMS_P2;Temp;Humidity;BMP_temperature;BMP_pressure;BME280_temperature;BME280_humidity;BME280_pressure;Samples;Min_cycle;Max_cycle;Signal;HPM_P1;HPM_P2
2023/04/03 00:00:17;;;;;;;21.08;19.25;;;1.20;99.90;;;;;;5064960;28;20100;-75
2023/04/03 00:02:44;;;;;;;19.23;17.92;;;1.20;99.90;;;;;;5041513;28;20045;-74
2023/04/03 00:05:11;;;;;;;20.52;18.95;;;1.10;99.90;;;;;;5064481;28;20515;-74
2023/04/03 00:07:37;;;;;;;19.73;18.33;;;1.10;99.90;;;;;;5046235;28;20135;-72
2023/04/03 00:10:05;;;;;;;19.83;18.30;;;1.10;99.90;;;;;;5062409;28;20417;-71
2023/04/03 00:12:31;;;;;;;19.45;17.98;;;1.10;99.90;;;;;;5061372;28;20052;-74
2023/04/03 00:14:58;;;;;;;19.15;17.85;;;1.10;99.90;;;;;;5051823;28;20118;-74
2023/04/03 00:17:25;;;;;;;19.20;17.63;;;1.00;99.90;;;;;;5065175;28;20037;-72
2023/04/03 00:19:52;;;;;;;19.08;17.58;;;1.00;99.90;;;;;;5058999;28;20441;-73
2023/04/03 00:22:18;;;;;;;19.45;17.92;;;1.00;99.90;;;;;;5047639;28;20308;-72
2023/04/03 00:24:45;;;;;;;19.60;18.10;;;1.00;99.90;;;;;;5041382;28;20083;-74
2023/04/03 00:27:12;;;;;;;20.13;18.23;;;1.00;99.90;;;;;;5057005;28;20128;-74
2023/04/03 00:29:39;;;;;;;19.02;17.30;;;0.90;99.90;;;;;;5060323;28;20394;-74
2023/04/03 00:32:05;;;;;;;19.27;17.42;;;0.90;99.90;;;;;;5047445;28;20326;-72
2023/04/03 00:34:32;;;;;;;20.27;18.23;;;0.80;99.90;;;;;;5064279;28;20105;-74
2023/04/03 00:36:59;;;;;;;19.85;18.02;;;0.80;99.90;;;;;;5062489;28;20029;-74
2023/04/03 00:39:26;;;;;;;19.05;17.45;;;0.80;99.90;;;;;;5041256;28;20075;-73
2023/04/03 00:41:53;;;;;;;18.67;17.08;;;0.80;99.90;;;;;;5059607;28;20082;-72
2023/04/03 00:44:39;;;;;;;19.85;17.98;;;0.80;99.90;;;;;;5065674;28;20667;-75
2023/04/03 00:47:10;;;;;;;21.45;17.58;;;0.70;99.90;;;;;;5062914;28;20045;-74
2023/04/03 00:49:38;;;;;;;19.70;17.88;;;0.80;99.90;;;;;;5058851;28;20422;-73
2023/04/03 00:52:08;;;;;;;19.48;17.77;;;0.70;99.90;;;;;;5060733;28;20132;-74
2023/04/03 00:54:37;;;;;;;19.33;17.50;;;0.70;99.90;;;;;;5062674;28;20044;-75
2023/04/03 00:57:06;;;;;;;17.85;16.83;;;0.70;99.90;;;;;;5061413;28;20396;-75
2023/04/03 00:59:38;;;;;;;19.33;17.67;;;0.70;99.90;;;;;;5063432;28;21359;-73
2023/04/03 01:02:04;;;;;;;18.52;17.10;;;0.70;99.90;;;;;;5044645;28;20048;-73
2023/04/03 01:04:39;;;;;;;18.00;16.67;;;0.70;99.90;;;;;;5058039;28;20339;-73
2023/04/03 01:07:28;;;;;;;18.80;17.08;;;0.70;99.90;;;;;;5045634;28;20498;-72
2023/04/03 01:10:01;;;;;;;18.48;16.98;;;0.60;99.90;;;;;;5056511;28;20139;-75
2023/04/03 01:12:33;;;;;;;19.45;17.70;;;0.60;99.90;;;;;;5059840;28;20036;-72
2023/04/03 01:15:05;;;;;;;18.33;16.83;;;0.50;99.90;;;;;;5061417;28;20044;-74
2023/04/03 01:17:31;;;;;;;17.83;16.48;;;0.50;99.90;;;;;;5055268;28;20036;-74
2023/04/03 01:20:35;;;;;;;17.83;16.25;;;0.50;99.90;;;;;;5059019;28;20537;-74
2023/04/03 01:23:14;;;;;;;17.92;16.33;;;0.30;99.90;;;;;;5064238;28;20405;-75
2023/04/03 01:25:47;;;;;;;17.40;16.10;;;0.30;99.90;;;;;;5059458;28;20044;-72
2023/04/03 01:28:24;;;;;;;17.48;15.75;;;0.20;99.90;;;;;;5045827;28;20328;-73
2023/04/03 01:30:59;;;;;;;17.20;15.88;;;0.20;99.90;;;;;;5053750;28;20710;-73
2023/04/03 01:33:27;;;;;;;20.35;15.75;;;0.20;99.90;;;;;;5058909;28;20341;-73
2023/04/03 01:35:53;;;;;;;18.13;16.55;;;0.10;99.90;;;;;;5058580;28;20071;-73
2023/04/03 01:38:20;;;;;;;18.40;16.45;;;0.20;99.90;;;;;;5049888;28;20133;-73
2023/04/03 01:40:47;;;;;;;17.08;15.57;;;0.10;99.90;;;;;;5048823;28;20055;-73
2023/04/03 01:43:14;;;;;;;20.65;16.05;;;0.20;99.90;;;;;;5047588;28;20532;-73
2023/04/03 01:45:41;;;;;;;16.83;15.73;;;0.10;99.90;;;;;;5043676;28;20051;-73
2023/04/03 01:48:08;;;;;;;19.35;17.23;;;0.20;99.90;;;;;;5064941;28;20043;-73
2023/04/03 01:50:35;;;;;;;17.90;16.10;;;0.10;99.90;;;;;;5057356;28;20044;-73
2023/04/03 01:53:01;;;;;;;17.33;15.82;;;0.10;99.90;;;;;;5058974;28;20048;-73
2023/04/03 01:55:28;;;;;;;16.83;15.57;;;0.10;99.90;;;;;;5060350;28;20417;-73
2023/04/03 01:57:55;;;;;;;16.95;15.65;;;0.10;99.90;;;;;;5062178;28;20036;-75
2023/04/03 02:00:22;;;;;;;20.30;17.80;;;0.10;99.90;;;;;;5041695;28;20086;-74
2023/04/03 02:02:49;;;;;;;17.77;16.05;;;0.10;99.90;;;;;;5063864;28;20267;-74
2023/04/03 02:05:16;;;;;;;17.17;15.60;;;0.00;99.90;;;;;;5053708;28;20073;-73
2023/04/03 02:07:43;;;;;;;17.20;15.50;;;0.00;99.90;;;;;;5047865;28;20688;-75
2023/04/03 02:10:10;;;;;;;17.95;16.33;;;0.00;99.90;;;;;;5069556;28;20040;-72
2023/04/03 02:12:37;;;;;;;17.33;15.70;;;0.00;99.90;;;;;;5047478;28;20044;-73
2023/04/03 02:15:04;;;;;;;17.55;15.98;;;0.00;99.90;;;;;;5034622;28;20047;-72
2023/04/03 02:17:31;;;;;;;18.10;16.58;;;-0.10;99.90;;;;;;5058210;28;20041;-73
2023/04/03 02:19:57;;;;;;;18.10;16.52;;;-0.10;99.90;;;;;;5066622;28;20037;-72
2023/04/03 02:22:24;;;;;;;17.42;15.85;;;-0.20;99.90;;;;;;5042132;28;20036;-73
2023/04/03 02:24:51;;;;;;;17.35;15.82;;;-0.20;99.90;;;;;;5060563;28;20122;-71
2023/04/03 02:27:20;;;;;;;17.38;15.73;;;-0.20;99.90;;;;;;5063162;28;20056;-75
2023/04/03 02:29:47;;;;;;;18.10;16.38;;;-0.10;99.90;;;;;;5063251;28;20346;-74
2023/04/03 02:32:14;;;;;;;17.75;16.17;;;-0.20;99.90;;;;;;5048277;28;20040;-72
2023/04/03 02:34:42;;;;;;;18.13;16.60;;;-0.30;99.90;;;;;;5053389;28;20046;-72
2023/04/03 02:37:11;;;;;;;17.20;15.75;;;-0.30;99.90;;;;;;5049684;28;20583;-73
2023/04/03 02:39:39;;;;;;;17.92;16.08;;;-0.30;99.90;;;;;;5047071;28;20380;-73
2023/04/03 02:42:07;;;;;;;16.98;15.55;;;-0.30;99.90;;;;;;5063288;28;20469;-72
2023/04/03 02:44:33;;;;;;;16.67;15.23;;;-0.30;99.90;;;;;;5055371;28;20043;-71
2023/04/03 02:47:00;;;;;;;16.73;15.63;;;-0.40;99.90;;;;;;5047349;28;20083;-73
2023/04/03 02:49:27;;;;;;;16.67;15.07;;;-0.40;99.90;;;;;;5050649;28;20386;-73
2023/04/03 02:51:53;;;;;;;15.85;14.70;;;-0.40;99.90;;;;;;5064758;28;20542;-72
2023/04/03 02:54:20;;;;;;;16.52;15.02;;;-0.50;99.90;;;;;;5048669;28;20470;-72
2023/04/03 02:56:51;;;;;;;17.52;15.80;;;-0.50;99.90;;;;;;5070724;28;20032;-73
2023/04/03 02:59:18;;;;;;;21.58;15.55;;;-0.50;99.90;;;;;;5051830;28;20036;-71
2023/04/03 03:01:45;;;;;;;18.92;17.00;;;-0.40;99.90;;;;;;5059420;28;20393;-73
2023/04/03 03:04:11;;;;;;;17.50;16.08;;;-0.40;99.90;;;;;;5056011;28;20139;-72
2023/04/03 03:06:38;;;;;;;17.27;15.65;;;-0.40;99.90;;;;;;5046756;28;20044;-72
2023/04/03 03:09:06;;;;;;;18.63;16.70;;;-0.40;99.90;;;;;;5058558;28;20131;-72
2023/04/03 03:11:33;;;;;;;18.45;16.83;;;-0.40;99.90;;;;;;5046947;28;20036;-72
2023/04/03 03:14:00;;;;;;;16.85;15.55;;;-0.40;99.90;;;;;;5061664;28;20102;-74
2023/04/03 03:16:26;;;;;;;18.05;16.23;;;-0.50;99.90;;;;;;5049960;28;20037;-72
2023/04/03 03:18:53;;;;;;;17.70;16.10;;;-0.60;99.90;;;;;;5062375;28;20041;-72
2023/04/03 03:21:20;;;;;;;16.88;15.68;;;-0.60;99.90;;;;;;5055649;28;20691;-73
2023/04/03 03:23:47;;;;;;;15.70;14.65;;;-0.60;99.90;;;;;;5046830;28;20052;-71
2023/04/03 03:26:13;;;;;;;15.93;14.65;;;-0.60;99.90;;;;;;5063246;28;20166;-72
2023/04/03 03:28:40;;;;;;;16.77;15.45;;;-0.70;99.90;;;;;;5066284;28;20058;-73
2023/04/03 03:31:08;;;;;;;15.38;14.38;;;-0.70;99.90;;;;;;5054158;28;20266;-71
2023/04/03 03:33:37;;;;;;;16.85;15.07;;;-0.70;99.90;;;;;;5065969;28;20040;-73
2023/04/03 03:36:04;;;;;;;16.27;15.05;;;-0.70;99.90;;;;;;5056874;28;20136;-73
2023/04/03 03:38:31;;;;;;;17.10;15.55;;;-0.60;99.90;;;;;;5064420;28;20520;-73
2023/04/03 03:40:59;;;;;;;17.08;15.73;;;-0.60;99.90;;;;;;5053123;28;20043;-73
2023/04/03 03:43:27;;;;;;;17.55;16.00;;;-0.60;99.90;;;;;;5057627;28;20086;-73
2023/04/03 03:45:54;;;;;;;17.35;15.57;;;-0.70;99.90;;;;;;5061765;28;20032;-73
2023/04/03 03:48:23;;;;;;;16.80;15.50;;;-0.70;99.90;;;;;;5045905;28;20195;-73
2023/04/03 03:50:50;;;;;;;16.70;15.45;;;-0.70;99.90;;;;;;5052123;28;20106;-73
2023/04/03 03:53:20;;;;;;;16.50;15.20;;;-0.70;99.90;;;;;;5055529;28;20047;-73
2023/04/03 03:55:51;;;;;;;16.52;15.10;;;-0.70;99.90;;;;;;5059283;28;20040;-73
2023/04/03 03:58:21;;;;;;;16.70;15.18;;;-0.80;99.90;;;;;;5063600;28;20044;-73
2023/04/03 04:00:47;;;;;;;16.08;14.73;;;-0.90;99.90;;;;;;5065725;28;20497;-72
2023/04/03 04:03:14;;;;;;;16.75;15.20;;;-0.80;99.90;;;;;;5042850;28;20044;-73
2023/04/03 04:05:44;;;;;;;16.00;14.77;;;-0.90;99.90;;;;;;5064521;28;20558;-73
2023/04/03 04:08:11;;;;;;;15.48;14.18;;;-0.90;99.90;;;;;;5063740;28;20051;-74
2023/04/03 04:10:38;;;;;;;16.25;14.43;;;-0.90;99.90;;;;;;5049748;28;20086;-74
2023/04/03 04:13:06;;;;;;;14.85;13.80;;;-0.90;99.90;;;;;;5038770;28;20067;-76
2023/04/03 04:15:33;;;;;;;16.35;14.05;;;-0.90;99.90;;;;;;5068205;28;20044;-76
2023/04/03 04:18:01;;;;;;;15.95;14.75;;;-0.90;99.90;;;;;;5046667;28;20049;-76
2023/04/03 04:20:28;;;;;;;17.42;15.75;;;-1.00;99.90;;;;;;5047838;28;20074;-76
2023/04/03 04:22:55;;;;;;;17.50;15.77;;;-1.00;99.90;;;;;;5060767;28;20139;-75
2023/04/03 04:25:23;;;;;;;16.23;15.13;;;-0.90;99.90;;;;;;5043156;28;20124;-76
2023/04/03 04:27:50;;;;;;;16.38;15.02;;;-1.00;99.90;;;;;;5057415;28;20217;-75
2023/04/03 04:30:17;;;;;;;20.63;15.38;;;-1.00;99.90;;;;;;5062771;28;20060;-77
2023/04/03 04:32:47;;;;;;;17.30;15.73;;;-1.10;99.90;;;;;;5048066;28;20036;-75
2023/04/03 04:35:14;;;;;;;17.13;15.48;;;-1.10;99.90;;;;;;5064943;28;20037;-75
2023/04/03 04:37:45;;;;;;;25.33;15.43;;;-1.10;99.90;;;;;;5063782;28;20059;-76
2023/04/03 04:40:12;;;;;;;17.67;15.63;;;-1.10;99.90;;;;;;5073953;28;20047;-75
2023/04/03 04:42:39;;;;;;;17.42;15.50;;;-1.10;99.90;;;;;;5059271;28;20060;-76
2023/04/03 04:45:07;;;;;;;17.25;15.70;;;-1.00;99.90;;;;;;5047862;28;20059;-75
2023/04/03 04:47:35;;;;;;;18.35;16.80;;;-1.10;99.90;;;;;;5049859;28;20051;-75
2023/04/03 04:50:02;;;;;;;16.77;15.45;;;-1.10;99.90;;;;;;5041443;28;20427;-75
2023/04/03 04:52:31;;;;;;;16.13;14.93;;;-1.10;99.90;;;;;;5060970;28;20438;-75
2023/04/03 04:54:58;;;;;;;16.48;14.70;;;-1.10;99.90;;;;;;5063953;28;20554;-76
2023/04/03 04:57:24;;;;;;;17.45;15.70;;;-1.10;99.90;;;;;;5054436;28;20045;-75
2023/04/03 04:59:52;;;;;;;16.52;14.90;;;-1.20;99.90;;;;;;5060288;28;20064;-76
2023/04/03 05:02:19;;;;;;;17.00;15.38;;;-1.20;99.90;;;;;;5061133;28;20131;-75
2023/04/03 05:04:46;;;;;;;16.60;15.02;;;-1.20;99.90;;;;;;5065514;28;20078;-75
2023/04/03 05:07:18;;;;;;;16.38;14.82;;;-1.20;99.90;;;;;;5055385;28;20582;-76
2023/04/03 05:09:45;;;;;;;21.02;18.77;;;-1.30;99.90;;;;;;5067501;28;20044;-76
2023/04/03 05:12:13;;;;;;;17.23;16.00;;;-1.30;99.90;;;;;;5068915;28;20076;-75
2023/04/03 05:14:46;;;;;;;16.70;15.30;;;-1.20;99.90;;;;;;5059540;28;20603;-75
2023/04/03 05:17:13;;;;;;;16.88;15.55;;;-1.20;99.90;;;;;;5066822;28;20568;-76
2023/04/03 05:19:44;;;;;;;16.58;15.45;;;-1.30;99.90;;;;;;5044448;28;20040;-76
2023/04/03 05:22:12;;;;;;;18.48;17.05;;;-1.20;99.90;;;;;;5058372;28;20091;-75
2023/04/03 05:24:38;;;;;;;19.55;18.10;;;-1.30;99.90;;;;;;5048905;28;20068;-76
2023/04/03 05:27:06;;;;;;;19.83;17.98;;;-1.30;99.90;;;;;;5073621;28;20040;-76
2023/04/03 05:29:37;;;;;;;18.65;17.13;;;-1.30;99.90;;;;;;5047092;28;20043;-75
2023/04/03 05:32:04;;;;;;;18.98;17.60;;;-1.20;99.90;;;;;;5041059;28;20072;-76
2023/04/03 05:34:31;;;;;;;20.35;18.25;;;-1.20;99.90;;;;;;5056483;28;20130;-76
2023/04/03 05:36:58;;;;;;;20.60;17.98;;;-1.20;99.90;;;;;;5068319;28;20059;-76
2023/04/03 05:39:27;;;;;;;22.00;18.05;;;-1.20;99.90;;;;;;5037152;28;20040;-75
2023/04/03 05:41:54;;;;;;;19.23;17.50;;;-1.20;99.90;;;;;;5049933;28;20047;-75
2023/04/03 05:44:21;;;;;;;21.00;16.77;;;-1.20;99.90;;;;;;5064551;28;20432;-76
2023/04/03 05:46:49;;;;;;;19.17;17.40;;;-1.20;99.90;;;;;;5039341;28;20475;-75
2023/04/03 05:49:16;;;;;;;19.42;17.52;;;-1.20;99.90;;;;;;5059372;28;20068;-75
2023/04/03 05:51:44;;;;;;;18.25;16.75;;;-1.10;99.90;;;;;;5054357;28;20068;-76
2023/04/03 05:54:28;;;;;;;18.90;17.25;;;-1.10;99.90;;;;;;5039739;28;20036;-76
2023/04/03 05:57:04;;;;;;;19.50;17.80;;;-1.10;99.90;;;;;;5037913;28;20070;-76
2023/04/03 05:59:32;;;;;;;23.77;17.75;;;-1.10;99.90;;;;;;5067927;28;20391;-76
2023/04/03 06:02:01;;;;;;;19.17;17.50;;;-1.10;99.90;;;;;;5059745;28;20714;-76
2023/04/03 06:04:27;;;;;;;19.92;17.80;;;-1.10;99.90;;;;;;5043675;28;20702;-75
2023/04/03 06:06:57;;;;;;;18.75;17.52;;;-1.00;99.90;;;;;;5057809;28;20044;-75
2023/04/03 06:09:28;;;;;;;21.20;19.17;;;-1.00;99.90;;;;;;5061565;28;20040;-76
2023/04/03 06:11:55;;;;;;;19.83;18.02;;;-1.00;99.90;;;;;;5059945;28;20058;-76
2023/04/03 06:14:24;;;;;;;25.17;22.75;;;-1.00;99.90;;;;;;5041073;28;20040;-76
2023/04/03 06:16:51;;;;;;;38.70;31.20;;;-0.90;99.90;;;;;;5060246;28;20037;-75
2023/04/03 06:19:19;;;;;;;21.35;19.77;;;-0.90;99.90;;;;;;5038060;28;20129;-74
2023/04/03 06:21:50;;;;;;;20.67;18.73;;;-0.80;99.90;;;;;;5056713;28;20039;-73
2023/04/03 06:24:17;;;;;;;22.20;20.30;;;-0.80;99.90;;;;;;5052935;28;20052;-74
2023/04/03 06:26:44;;;;;;;22.88;18.48;;;-0.70;99.90;;;;;;5057866;28;20040;-74
2023/04/03 06:29:11;;;;;;;21.63;19.77;;;-0.70;99.90;;;;;;5046829;28;20094;-74
2023/04/03 06:31:37;;;;;;;21.55;19.95;;;-0.60;99.90;;;;;;5058045;28;20048;-74
2023/04/03 06:34:05;;;;;;;26.27;24.52;;;-0.60;99.90;;;;;;5063609;28;20055;-74
2023/04/03 06:36:35;;;;;;;24.52;22.77;;;-0.60;99.90;;;;;;5053413;28;20559;-74
2023/04/03 06:39:02;;;;;;;26.77;24.70;;;-0.60;99.90;;;;;;5054824;28;20053;-73
2023/04/03 06:41:30;;;;;;;27.60;25.48;;;-0.50;99.90;;;;;;5039246;28;20492;-74
2023/04/03 06:43:57;;;;;;;22.52;20.75;;;-0.50;99.90;;;;;;5037891;28;20116;-74
2023/04/03 06:46:26;;;;;;;21.73;20.23;;;-0.30;99.90;;;;;;5034414;28;20036;-74
2023/04/03 06:48:53;;;;;;;23.48;21.52;;;-0.30;99.90;;;;;;5058252;28;20038;-73
2023/04/03 06:51:22;;;;;;;25.20;22.88;;;-0.20;99.90;;;;;;5039723;28;20048;-72
2023/04/03 06:53:50;;;;;;;25.45;23.50;;;-0.10;99.90;;;;;;5055566;28;20064;-76
2023/04/03 06:56:17;;;;;;;23.83;22.15;;;-0.10;99.90;;;;;;5055541;28;20144;-75
2023/04/03 06:58:44;;;;;;;26.65;24.77;;;0.00;99.90;;;;;;5049519;28;20037;-74
2023/04/03 07:01:13;;;;;;;26.50;24.50;;;0.10;99.90;;;;;;5064473;28;20048;-74
2023/04/03 07:03:41;;;;;;;28.40;26.40;;;0.20;99.90;;;;;;5066180;28;20045;-74
2023/04/03 07:06:11;;;;;;;24.85;23.38;;;0.30;99.90;;;;;;5070478;28;20060;-74
2023/04/03 07:08:38;;;;;;;30.42;28.27;;;0.40;99.90;;;;;;5057538;28;20119;-75
2023/04/03 07:11:06;;;;;;;30.05;28.08;;;0.50;99.90;;;;;;5059290;28;20045;-74
2023/04/03 07:13:33;;;;;;;30.13;28.20;;;0.60;99.90;;;;;;5062120;28;20055;-74
2023/04/03 07:16:00;;;;;;;32.25;29.83;;;0.70;99.90;;;;;;5064401;28;20525;-74
2023/04/03 07:18:26;;;;;;;33.38;31.38;;;0.80;99.90;;;;;;5057004;28;20036;-74
2023/04/03 07:20:53;;;;;;;33.03;31.05;;;1.20;99.90;;;;;;5061015;28;20497;-73
2023/04/03 07:23:20;;;;;;;33.05;30.90;;;1.50;99.90;;;;;;5050710;28;20052;-75
2023/04/03 07:25:48;;;;;;;33.97;31.65;;;1.70;99.90;;;;;;5057006;28;20037;-74
2023/04/03 07:28:16;;;;;;;32.03;29.42;;;1.70;99.90;;;;;;5064475;28;20044;-74
2023/04/03 07:30:49;;;;;;;31.95;29.73;;;1.60;99.90;;;;;;5051058;28;20127;-74
2023/04/03 07:33:17;;;;;;;31.48;29.48;;;1.60;99.90;;;;;;5059923;28;20052;-74
2023/04/03 07:35:45;;;;;;;31.85;28.85;;;1.70;99.90;;;;;;5068544;28;20044;-75
2023/04/03 07:38:12;;;;;;;32.85;30.65;;;1.90;99.90;;;;;;5059484;28;20049;-74
2023/04/03 07:40:39;;;;;;;32.10;30.30;;;1.90;99.90;;;;;;5061411;28;20098;-75
2023/04/03 07:43:06;;;;;;;35.92;33.72;;;1.70;99.90;;;;;;5058994;28;20131;-74
2023/04/03 07:45:35;;;;;;;33.42;31.30;;;1.80;99.90;;;;;;5064218;28;20052;-74
2023/04/03 07:48:03;;;;;;;33.55;31.50;;;2.10;99.90;;;;;;5063636;28;20131;-73
2023/04/03 07:50:31;;;;;;;34.22;31.90;;;2.40;99.90;;;;;;5042833;28;20044;-75
2023/04/03 07:52:58;;;;;;;34.38;32.28;;;2.60;99.90;;;;;;5055420;28;20243;-75
2023/04/03 07:55:25;;;;;;;36.22;33.85;;;2.50;99.90;;;;;;5051638;28;20181;-75
2023/04/03 07:57:51;;;;;;;35.63;33.47;;;2.40;99.90;;;;;;5063246;28;20122;-73
2023/04/03 08:00:19;;;;;;;36.25;34.17;;;2.50;99.90;;;;;;5063162;28;20044;-74
2023/04/03 08:02:51;;;;;;;35.78;33.80;;;2.70;99.90;;;;;;5066620;28;20071;-73
2023/04/03 08:05:19;;;;;;;35.05;32.95;;;2.30;99.90;;;;;;5042477;28;20101;-75
2023/04/03 08:07:46;;;;;;;35.03;33.13;;;2.30;99.90;;;;;;5065575;28;20173;-75
2023/04/03 08:10:14;;;;;;;35.70;33.70;;;2.40;99.90;;;;;;5055667;28;20048;-72
2023/04/03 08:12:42;;;;;;;36.05;34.05;;;2.50;99.90;;;;;;5068764;28;20044;-73
2023/04/03 08:15:09;;;;;;;35.75;33.85;;;2.70;99.90;;;;;;5032093;28;20095;-74
2023/04/03 08:17:36;;;;;;;36.55;34.53;;;2.80;99.90;;;;;;5051492;28;20132;-73
2023/04/03 08:20:06;;;;;;;36.17;33.75;;;2.80;99.90;;;;;;5049487;28;20043;-73
2023/04/03 08:22:34;;;;;;;37.65;35.30;;;3.20;99.90;;;;;;5054938;28;20040;-74
2023/04/03 08:25:01;;;;;;;35.78;33.42;;;3.30;99.90;;;;;;5062958;28;20108;-74
2023/04/03 08:27:28;;;;;;;38.50;36.00;;;3.50;99.90;;;;;;5043223;28;20053;-74
2023/04/03 08:29:56;;;;;;;37.38;34.97;;;3.60;99.90;;;;;;5064212;28;20056;-74
2023/04/03 08:32:23;;;;;;;37.70;35.13;;;3.90;99.90;;;;;;5063665;28;20121;-74
2023/04/03 08:34:50;;;;;;;34.28;32.28;;;4.00;99.90;;;;;;5065277;28;20044;-73
2023/04/03 08:37:17;;;;;;;35.55;33.50;;;4.30;99.90;;;;;;5052735;28;20036;-74
2023/04/03 08:39:44;;;;;;;34.83;32.78;;;4.20;99.90;;;;;;5057339;28;20074;-73
2023/04/03 08:42:25;;;;;;;35.10;32.80;;;3.70;99.90;;;;;;5053203;28;20497;-73
2023/04/03 08:45:06;;;;;;;36.47;34.35;;;3.60;99.90;;;;;;5050962;28;20049;-74
2023/04/03 08:47:42;;;;;;;35.70;33.70;;;3.70;99.90;;;;;;5062397;28;20047;-74
2023/04/03 08:50:17;;;;;;;37.85;35.65;;;4.60;99.90;;;;;;5064533;28;20068;-73
2023/04/03 08:52:58;;;;;;;36.45;34.55;;;4.90;99.90;;;;;;5059187;28;20048;-73
2023/04/03 08:55:28;;;;;;;38.58;36.17;;;5.20;99.90;;;;;;5045225;28;20044;-72
2023/04/03 08:58:02;;;;;;;36.50;34.15;;;5.20;99.90;;;;;;5062585;28;20060;-73
2023/04/03 09:00:40;;;;;;;34.88;32.70;;;4.30;99.90;;;;;;5047609;28;20189;-73
2023/04/03 09:03:12;;;;;;;35.42;33.03;;;4.00;99.90;;;;;;5062560;28;20500;-73
2023/04/03 09:06:13;;;;;;;33.83;31.90;;;4.40;99.90;;;;;;5042257;28;20044;-72
2023/04/03 09:09:04;;;;;;;33.20;30.98;;;4.30;99.90;;;;;;5057540;28;20051;-71
2023/04/03 09:12:00;;;;;;;33.08;30.67;;;4.30;99.90;;;;;;5043814;28;20064;-75
2023/04/03 09:14:43;;;;;;;31.80;29.67;;;4.60;99.90;;;;;;5035171;28;20381;-74
2023/04/03 09:17:27;;;;;;;31.35;29.13;;;4.40;99.90;;;;;;5038243;28;20055;-72
2023/04/03 09:20:15;;;;;;;31.55;29.27;;;4.70;99.90;;;;;;5055353;28;20563;-74
2023/04/03 09:22:45;;;;;;;31.27;29.23;;;4.80;99.90;;;;;;5048376;28;20044;-75
2023/04/03 09:25:32;;;;;;;30.30;28.30;;;5.10;99.90;;;;;;5061283;28;20079;-72
2023/04/03 09:28:01;;;;;;;31.35;29.45;;;5.20;99.90;;;;;;5054743;28;20053;-73
2023/04/03 09:30:28;;;;;;;36.70;34.40;;;4.70;99.90;;;;;;5051187;28;20048;-73
2023/04/03 09:32:56;;;;;;;31.75;29.90;;;5.00;99.90;;;;;;5050622;28;20051;-73
2023/04/03 09:35:34;;;;;;;34.13;31.73;;;4.80;99.90;;;;;;5066707;28;20048;-70
2023/04/03 09:38:15;;;;;;;31.83;29.88;;;4.80;99.90;;;;;;5053055;28;20049;-70
2023/04/03 09:40:51;;;;;;;38.20;35.78;;;5.00;99.90;;;;;;5064006;28;20398;-73
2023/04/03 09:43:24;;;;;;;38.63;36.25;;;4.90;99.90;;;;;;5063573;28;20114;-71
2023/04/03 09:45:52;;;;;;;36.25;34.25;;;5.10;99.90;;;;;;5045406;28;20123;-72
2023/04/03 09:48:28;;;;;;;35.25;33.15;;;5.20;99.90;;;;;;5047562;28;20441;-72
2023/04/03 09:51:01;;;;;;;36.85;34.70;;;5.30;99.90;;;;;;5049784;28;20040;-72
2023/04/03 09:53:42;;;;;;;41.85;39.13;;;5.00;99.90;;;;;;5059241;28;20032;-74
2023/04/03 09:56:15;;;;;;;40.00;37.70;;;4.80;99.90;;;;;;5066189;28;20040;-72
2023/04/03 09:58:45;;;;;;;35.50;33.40;;;4.90;99.90;;;;;;5047130;28;20059;-71
2023/04/03 10:01:34;;;;;;;38.55;36.28;;;5.10;99.90;;;;;;5045934;28;20116;-72
2023/04/03 10:04:18;;;;;;;39.42;37.17;;;4.60;99.90;;;;;;5053099;28;20425;-72
2023/04/03 10:06:50;;;;;;;40.87;38.67;;;4.00;99.90;;;;;;5045141;28;20666;-73
2023/04/03 10:09:32;;;;;;;40.13;37.83;;;4.30;99.90;;;;;;5053805;28;20323;-70
2023/04/03 10:12:14;;;;;;;39.03;36.92;;;4.70;99.90;;;;;;5048159;28;20043;-72
2023/04/03 10:14:58;;;;;;;39.90;37.67;;;5.50;99.90;;;;;;5047526;28;20101;-72
2023/04/03 10:17:46;;;;;;;41.47;38.80;;;5.80;99.90;;;;;;5054205;28;20210;-73
2023/04/03 10:20:49;;;;;;;42.15;39.55;;;5.70;99.90;;;;;;5049795;28;20050;-73
2023/04/03 10:23:25;;;;;;;41.10;38.90;;;5.80;99.90;;;;;;5029742;28;20053;-73
2023/04/03 10:26:12;;;;;;;45.08;42.67;;;5.50;99.90;;;;;;5052895;28;20037;-71
2023/04/03 10:29:09;;;;;;;42.95;40.65;;;5.70;99.90;;;;;;5055252;28;20082;-72
2023/04/03 10:31:36;;;;;;;;;;;6.10;99.90;;;;;;5053903;28;20035;-70
2023/04/03 10:34:20;;;;;;;43.78;41.53;;;6.00;99.90;;;;;;5052516;28;20432;-74
2023/04/03 10:37:00;;;;;;;39.28;37.08;;;5.50;99.90;;;;;;5036263;28;20073;-74
2023/04/03 10:39:39;;;;;;;38.33;36.33;;;5.20;99.90;;;;;;5057596;28;20441;-73
2023/04/03 10:42:12;;;;;;;41.45;38.67;;;4.90;99.90;;;;;;5064034;28;20123;-72
2023/04/03 10:44:43;;;;;;;35.72;33.83;;;4.50;99.90;;;;;;5069079;28;20393;-73
2023/04/03 10:47:37;;;;;;;37.75;35.40;;;4.40;99.90;;;;;;5048364;28;20040;-72
2023/04/03 10:50:30;;;;;;;35.72;33.72;;;4.20;99.90;;;;;;5060493;28;20619;-72
2023/04/03 10:53:08;;;;;;;38.63;36.20;;;4.00;99.90;;;;;;5047064;28;20186;-71
2023/04/03 10:55:44;;;;;;;40.92;38.72;;;3.80;99.90;;;;;;5045472;28;20125;-72
2023/04/03 10:58:25;;;;;;;37.08;35.03;;;3.80;99.90;;;;;;5063977;28;20588;-71
2023/04/03 11:00:54;;;;;;;43.58;40.72;;;3.90;99.90;;;;;;5049911;28;20040;-73
2023/04/03 11:03:27;;;;;;;44.17;41.58;;;3.80;99.90;;;;;;5046510;28;20072;-70
2023/04/03 11:05:55;;;;;;;41.95;39.42;;;4.30;99.90;;;;;;5052492;28;20125;-72
2023/04/03 11:08:54;;;;;;;39.70;37.60;;;4.90;99.90;;;;;;5064728;28;20055;-71
2023/04/03 11:11:27;;;;;;;47.90;44.92;;;5.00;99.90;;;;;;5060431;28;20533;-74
2023/04/03 11:14:13;;;;;;;41.85;39.65;;;4.90;99.90;;;;;;5053551;28;20036;-73
2023/04/03 11:16:51;;;;;;;52.28;49.33;;;5.20;99.90;;;;;;5049164;28;20496;-72
2023/04/03 11:19:26;;;;;;;45.55;43.10;;;5.30;99.90;;;;;;5051980;28;20037;-72
2023/04/03 11:22:28;;;;;;;53.53;50.63;;;5.50;99.90;;;;;;5039746;28;20041;-75
2023/04/03 11:25:12;;;;;;;49.75;46.95;;;5.80;99.90;;;;;;5010144;28;20038;-74
2023/04/03 11:27:57;;;;;;;46.78;44.28;;;6.00;99.90;;;;;;5047742;28;20047;-73
2023/04/03 11:30:42;;;;;;;47.58;44.60;;;6.30;99.90;;;;;;5041477;28;20047;-74
2023/04/03 11:33:48;;;;;;;49.35;46.75;;;6.20;99.90;;;;;;5065738;28;20040;-71
2023/04/03 11:36:33;;;;;;;47.38;44.78;;;7.00;99.90;;;;;;5066124;28;20119;-72
2023/04/03 11:39:15;;;;;;;43.45;40.75;;;6.50;99.90;;;;;;5051227;28;20052;-74
2023/04/03 11:41:42;;;;;;;41.63;39.30;;;6.10;99.90;;;;;;5053927;28;20048;-72
2023/04/03 11:44:34;;;;;;;42.45;40.10;;;6.40;99.90;;;;;;5060231;28;20776;-72
2023/04/03 11:47:02;;;;;;;53.50;50.55;;;6.50;99.90;;;;;;5061440;28;20040;-74
2023/04/03 11:50:01;;;;;;;42.88;40.15;;;5.70;99.90;;;;;;5055634;28;20053;-71
2023/04/03 11:52:40;;;;;;;53.60;50.53;;;5.60;99.90;;;;;;5057629;28;20054;-73
2023/04/03 11:55:19;;;;;;;43.90;41.28;;;5.80;99.90;;;;;;5065373;28;20059;-70
2023/04/03 11:58:13;;;;;;;43.13;40.58;;;5.80;99.90;;;;;;5058812;28;20059;-72
2023/04/03 12:00:55;;;;;;;44.58;41.92;;;5.70;99.90;;;;;;5056362;28;20131;-74
2023/04/03 12:06:16;;;;;;;51.17;48.42;;;6.00;99.90;;;;;;5059550;28;20130;-74
2023/04/03 12:08:50;;;;;;;38.70;36.35;;;5.80;99.90;;;;;;5057569;28;20044;-73
2023/04/03 12:11:30;;;;;;;39.67;36.85;;;5.50;99.90;;;;;;5068501;28;20047;-75
2023/04/03 12:13:57;;;;;;;39.95;37.20;;;5.50;99.90;;;;;;5057490;28;20475;-74
2023/04/03 12:16:39;;;;;;;37.80;35.63;;;5.50;99.90;;;;;;5064345;28;20038;-73
2023/04/03 12:19:18;;;;;;;40.00;37.50;;;5.50;99.90;;;;;;5063119;28;20048;-71
2023/04/03 12:21:48;;;;;;;40.03;37.63;;;5.40;99.90;;;;;;5065445;28;20118;-73
2023/04/03 12:24:20;;;;;;;41.20;38.75;;;5.50;99.90;;;;;;5060148;28;20046;-70
2023/04/03 12:27:01;;;;;;;39.00;36.60;;;5.40;99.90;;;;;;5073729;28;20426;-72
2023/04/03 12:29:28;;;;;;;38.60;36.10;;;5.50;99.90;;;;;;5049960;28;20106;-74
2023/04/03 12:32:32;;;;;;;43.47;40.97;;;5.30;99.90;;;;;;5067122;28;20044;-71
2023/04/03 12:35:06;;;;;;;38.65;36.05;;;5.10;99.90;;;;;;5062637;28;20140;-71
2023/04/03 12:38:10;;;;;;;39.58;37.30;;;5.10;99.90;;;;;;5069905;28;20501;-72
2023/04/03 12:40:48;;;;;;;38.80;36.30;;;5.10;99.90;;;;;;5063309;28;20095;-72
2023/04/03 12:43:39;;;;;;;39.75;37.35;;;4.90;99.90;;;;;;5065010;28;20051;-74
2023/04/03 12:46:09;;;;;;;39.53;36.97;;;5.10;99.90;;;;;;5057454;28;20067;-72
2023/04/03 12:48:45;;;;;;;44.85;41.88;;;5.10;99.90;;;;;;5063198;28;20109;-73
2023/04/03 12:51:34;;;;;;;39.78;37.38;;;4.70;99.90;;;;;;5062944;28;20052;-70
2023/04/03 12:54:12;;;;;;;44.85;42.10;;;4.90;99.90;;;;;;5063841;28;20136;-73
2023/04/03 12:56:40;;;;;;;44.03;41.40;;;5.20;99.90;;;;;;5056429;28;20060;-74
2023/04/03 12:59:21;;;;;;;45.00;42.35;;;5.40;99.90;;;;;;5064894;28;20784;-74